sensor_id;sensor_type;location;lat;lon;timestamp;P1;durP1;ratioP1;P2;durP2;ratioP2
15104;SDS011;7653;48.994;9.212;2023-05-23T00:01:20;39.33;;;28.97;;
15104;SDS011;7653;48.994;9.212;2023-05-23T00:03:46;42.90;;;29.40;;
15104;SDS011;7653;48.994;9.212;2023-05-23T00:06:13;45.40;;;31.33;;
15104;SDS011;7653;48.994;9.212;2023-05-23T00:08:45;41.77;;;30.00;;
15104;SDS011;7653;48.994;9.212;2023-05-23T00:11:10;46.43;;;32.37;;
15104;SDS011;7653;48.994;9.212;2023-05-23T00:13:37;43.50;;;30.23;;
15104;SDS011;7653;48.994;9.212;2023-05-23T00:16:04;44.50;;;30.40;;
15104;SDS011;7653;48.994;9.212;2023-05-23T00:18:33;47.87;;;31.83;;
15104;SDS011;7653;48.994;9.212;2023-05-23T00:21:00;48.03;;;33.10;;
15104;SDS011;7653;48.994;9.212;2023-05-23T00:23:26;46.00;;;31.97;;
15104;SDS011;7653;48.994;9.212;2023-05-23T00:25:53;51.03;;;33.60;;
15104;SDS011;7653;48.994;9.212;2023-05-23T00:28:20;47.43;;;32.03;;
15104;SDS011;7653;48.994;9.212;2023-05-23T00:30:46;53.07;;;32.90;;
15104;SDS011;7653;48.994;9.212;2023-05-23T00:33:13;47.43;;;31.83;;
15104;SDS011;7653;48.994;9.212;2023-05-23T00:35:40;53.20;;;35.10;;
15104;SDS011;7653;48.994;9.212;2023-05-23T00:38:06;56.23;;;35.07;;
15104;SDS011;7653;48.994;9.212;2023-05-23T00:40:32;57.43;;;36.97;;
15104;SDS011;7653;48.994;9.212;2023-05-23T00:42:59;57.70;;;36.20;;
15104;SDS011;7653;48.994;9.212;2023-05-23T00:45:25;58.13;;;36.37;;
15104;SDS011;7653;48.994;9.212;2023-05-23T00:47:51;61.53;;;39.30;;
15104;SDS011;7653;48.994;9.212;2023-05-23T00:50:18;57.87;;;37.40;;
15104;SDS011;7653;48.994;9.212;2023-05-23T00:52:44;63.77;;;39.00;;
15104;SDS011;7653;48.994;9.212;2023-05-23T00:55:12;65.63;;;40.20;;
15104;SDS011;7653;48.994;9.212;2023-05-23T00:57:38;67.60;;;41.97;;
15104;SDS011;7653;48.994;9.212;2023-05-23T01:00:08;62.97;;;39.47;;
15104;SDS011;7653;48.994;9.212;2023-05-23T01:02:39;68.73;;;39.27;;
15104;SDS011;7653;48.994;9.212;2023-05-23T01:05:10;67.07;;;41.37;;
15104;SDS011;7653;48.994;9.212;2023-05-23T01:07:42;64.97;;;42.23;;
15104;SDS011;7653;48.994;9.212;2023-05-23T01:10:08;74.40;;;42.10;;
15104;SDS011;7653;48.994;9.212;2023-05-23T01:13:39;67.73;;;41.77;;
15104;SDS011;7653;48.994;9.212;2023-05-23T01:15:54;67.57;;;42.57;;
15104;SDS011;7653;48.994;9.212;2023-05-23T01:18:30;76.80;;;45.17;;
15104;SDS011;7653;48.994;9.212;2023-05-23T01:21:20;74.60;;;44.10;;
15104;SDS011;7653;48.994;9.212;2023-05-23T01:29:07;73.90;;;46.10;;
15104;SDS011;7653;48.994;9.212;2023-05-23T01:31:36;76.00;;;44.17;;
15104;SDS011;7653;48.994;9.212;2023-05-23T01:34:07;72.20;;;44.60;;
15104;SDS011;7653;48.994;9.212;2023-05-23T01:36:34;72.30;;;45.73;;
15104;SDS011;7653;48.994;9.212;2023-05-23T01:39:06;67.87;;;43.50;;
15104;SDS011;7653;48.994;9.212;2023-05-23T01:41:32;74.37;;;43.70;;
15104;SDS011;7653;48.994;9.212;2023-05-23T01:43:57;74.70;;;44.53;;
15104;SDS011;7653;48.994;9.212;2023-05-23T01:46:23;68.23;;;42.53;;
15104;SDS011;7653;48.994;9.212;2023-05-23T01:48:51;75.77;;;44.43;;
15104;SDS011;7653;48.994;9.212;2023-05-23T01:51:20;72.50;;;43.60;;
15104;SDS011;7653;48.994;9.212;2023-05-23T01:53:46;79.50;;;47.17;;
15104;SDS011;7653;48.994;9.212;2023-05-23T01:56:14;67.40;;;42.53;;
15104;SDS011;7653;48.994;9.212;2023-05-23T01:58:41;82.33;;;45.67;;
15104;SDS011;7653;48.994;9.212;2023-05-23T02:01:06;72.00;;;44.43;;
15104;SDS011;7653;48.994;9.212;2023-05-23T02:03:33;79.60;;;45.47;;
15104;SDS011;7653;48.994;9.212;2023-05-23T02:05:59;67.47;;;44.10;;
15104;SDS011;7653;48.994;9.212;2023-05-23T02:08:25;76.43;;;45.77;;
15104;SDS011;7653;48.994;9.212;2023-05-23T02:10:51;84.17;;;46.63;;
15104;SDS011;7653;48.994;9.212;2023-05-23T02:13:16;77.93;;;45.97;;
15104;SDS011;7653;48.994;9.212;2023-05-23T02:15:42;75.40;;;46.47;;
15104;SDS011;7653;48.994;9.212;2023-05-23T02:18:08;79.53;;;46.73;;
15104;SDS011;7653;48.994;9.212;2023-05-23T02:20:34;73.70;;;45.10;;
15104;SDS011;7653;48.994;9.212;2023-05-23T02:22:59;76.30;;;45.97;;
15104;SDS011;7653;48.994;9.212;2023-05-23T02:25:25;76.33;;;47.73;;
15104;SDS011;7653;48.994;9.212;2023-05-23T02:27:51;81.50;;;49.57;;
15104;SDS011;7653;48.994;9.212;2023-05-23T02:30:16;74.97;;;47.90;;
15104;SDS011;7653;48.994;9.212;2023-05-23T02:32:42;74.77;;;45.87;;
15104;SDS011;7653;48.994;9.212;2023-05-23T02:35:08;81.87;;;50.30;;
15104;SDS011;7653;48.994;9.212;2023-05-23T02:37:34;79.63;;;47.43;;
15104;SDS011;7653;48.994;9.212;2023-05-23T02:40:00;71.83;;;46.33;;
15104;SDS011;7653;48.994;9.212;2023-05-23T02:42:26;78.93;;;50.50;;
15104;SDS011;7653;48.994;9.212;2023-05-23T02:44:51;71.27;;;44.87;;
15104;SDS011;7653;48.994;9.212;2023-05-23T02:47:17;75.87;;;46.60;;
15104;SDS011;7653;48.994;9.212;2023-05-23T02:49:43;74.60;;;48.90;;
15104;SDS011;7653;48.994;9.212;2023-05-23T02:52:08;72.87;;;48.10;;
15104;SDS011;7653;48.994;9.212;2023-05-23T02:54:34;77.87;;;49.50;;
15104;SDS011;7653;48.994;9.212;2023-05-23T02:57:00;73.27;;;47.87;;
15104;SDS011;7653;48.994;9.212;2023-05-23T02:59:25;75.40;;;50.33;;
15104;SDS011;7653;48.994;9.212;2023-05-23T03:01:51;71.53;;;49.40;;
15104;SDS011;7653;48.994;9.212;2023-05-23T03:04:17;77.27;;;49.23;;
15104;SDS011;7653;48.994;9.212;2023-05-23T03:06:42;72.53;;;48.27;;
15104;SDS011;7653;48.994;9.212;2023-05-23T03:09:08;74.87;;;48.87;;
15104;SDS011;7653;48.994;9.212;2023-05-23T03:11:34;75.23;;;50.80;;
15104;SDS011;7653;48.994;9.212;2023-05-23T03:13:59;82.07;;;48.93;;
15104;SDS011;7653;48.994;9.212;2023-05-23T03:16:25;74.13;;;49.77;;
15104;SDS011;7653;48.994;9.212;2023-05-23T03:18:51;78.43;;;49.37;;
15104;SDS011;7653;48.994;9.212;2023-05-23T03:21:16;71.87;;;47.10;;
15104;SDS011;7653;48.994;9.212;2023-05-23T03:23:42;77.43;;;48.90;;
15104;SDS011;7653;48.994;9.212;2023-05-23T03:26:08;68.73;;;47.23;;
15104;SDS011;7653;48.994;9.212;2023-05-23T03:28:33;73.73;;;42.20;;
15104;SDS011;7653;48.994;9.212;2023-05-23T03:30:59;66.20;;;42.97;;
15104;SDS011;7653;48.994;9.212;2023-05-23T03:33:25;70.80;;;45.23;;
15104;SDS011;7653;48.994;9.212;2023-05-23T03:35:50;78.17;;;49.73;;
15104;SDS011;7653;48.994;9.212;2023-05-23T03:38:16;76.07;;;48.47;;
15104;SDS011;7653;48.994;9.212;2023-05-23T03:40:42;69.17;;;44.63;;
15104;SDS011;7653;48.994;9.212;2023-05-23T03:43:08;77.13;;;49.67;;
15104;SDS011;7653;48.994;9.212;2023-05-23T03:45:33;72.63;;;48.03;;
15104;SDS011;7653;48.994;9.212;2023-05-23T03:47:59;72.80;;;47.33;;
15104;SDS011;7653;48.994;9.212;2023-05-23T03:50:25;72.10;;;44.90;;
15104;SDS011;7653;48.994;9.212;2023-05-23T03:52:51;67.53;;;45.70;;
15104;SDS011;7653;48.994;9.212;2023-05-23T03:55:18;68.13;;;47.13;;
15104;SDS011;7653;48.994;9.212;2023-05-23T03:57:48;66.47;;;45.90;;
15104;SDS011;7653;48.994;9.212;2023-05-23T04:00:14;66.00;;;45.60;;
15104;SDS011;7653;48.994;9.212;2023-05-23T04:02:40;66.90;;;45.77;;
15104;SDS011;7653;48.994;9.212;2023-05-23T04:05:06;63.77;;;45.43;;
15104;SDS011;7653;48.994;9.212;2023-05-23T04:07:32;68.50;;;47.33;;
15104;SDS011;7653;48.994;9.212;2023-05-23T04:09:58;69.57;;;46.43;;
15104;SDS011;7653;48.994;9.212;2023-05-23T04:12:25;66.47;;;46.53;;
15104;SDS011;7653;48.994;9.212;2023-05-23T04:14:50;71.47;;;47.67;;
15104;SDS011;7653;48.994;9.212;2023-05-23T04:17:16;66.87;;;44.57;;
15104;SDS011;7653;48.994;9.212;2023-05-23T04:19:42;65.97;;;46.33;;
15104;SDS011;7653;48.994;9.212;2023-05-23T04:22:08;65.20;;;43.67;;
15104;SDS011;7653;48.994;9.212;2023-05-23T04:24:34;63.17;;;40.10;;
15104;SDS011;7653;48.994;9.212;2023-05-23T04:27:01;63.23;;;44.50;;
15104;SDS011;7653;48.994;9.212;2023-05-23T04:29:26;63.80;;;42.50;;
15104;SDS011;7653;48.994;9.212;2023-05-23T04:31:55;63.37;;;42.80;;
15104;SDS011;7653;48.994;9.212;2023-05-23T04:34:21;64.93;;;46.00;;
15104;SDS011;7653;48.994;9.212;2023-05-23T04:36:47;65.90;;;45.60;;
15104;SDS011;7653;48.994;9.212;2023-05-23T04:39:13;65.33;;;46.57;;
15104;SDS011;7653;48.994;9.212;2023-05-23T04:41:40;66.87;;;43.57;;
15104;SDS011;7653;48.994;9.212;2023-05-23T04:44:06;62.37;;;44.70;;
15104;SDS011;7653;48.994;9.212;2023-05-23T04:46:34;54.97;;;37.07;;
15104;SDS011;7653;48.994;9.212;2023-05-23T04:49:00;60.13;;;42.47;;
15104;SDS011;7653;48.994;9.212;2023-05-23T04:51:26;62.00;;;44.47;;
15104;SDS011;7653;48.994;9.212;2023-05-23T04:53:51;65.33;;;44.77;;
15104;SDS011;7653;48.994;9.212;2023-05-23T04:56:17;60.13;;;44.47;;
15104;SDS011;7653;48.994;9.212;2023-05-23T04:58:45;61.70;;;43.83;;
15104;SDS011;7653;48.994;9.212;2023-05-23T05:01:11;62.33;;;43.43;;
15104;SDS011;7653;48.994;9.212;2023-05-23T05:03:38;58.80;;;41.67;;
15104;SDS011;7653;48.994;9.212;2023-05-23T05:06:04;54.03;;;38.17;;
15104;SDS011;7653;48.994;9.212;2023-05-23T05:08:30;57.93;;;42.00;;
15104;SDS011;7653;48.994;9.212;2023-05-23T05:10:56;54.43;;;39.97;;
15104;SDS011;7653;48.994;9.212;2023-05-23T05:13:22;59.77;;;42.80;;
15104;SDS011;7653;48.994;9.212;2023-05-23T05:15:47;55.50;;;38.60;;
15104;SDS011;7653;48.994;9.212;2023-05-23T05:18:13;60.07;;;41.67;;
15104;SDS011;7653;48.994;9.212;2023-05-23T05:20:38;53.53;;;37.63;;
15104;SDS011;7653;48.994;9.212;2023-05-23T05:23:04;56.70;;;40.57;;
15104;SDS011;7653;48.994;9.212;2023-05-23T05:25:30;48.23;;;33.37;;
15104;SDS011;7653;48.994;9.212;2023-05-23T05:27:57;50.60;;;38.47;;
15104;SDS011;7653;48.994;9.212;2023-05-23T05:30:27;50.40;;;36.87;;
15104;SDS011;7653;48.994;9.212;2023-05-23T05:32:52;54.90;;;38.07;;
15104;SDS011;7653;48.994;9.212;2023-05-23T05:35:18;51.03;;;37.67;;
15104;SDS011;7653;48.994;9.212;2023-05-23T05:37:43;50.40;;;35.73;;
15104;SDS011;7653;48.994;9.212;2023-05-23T05:40:09;52.17;;;38.73;;
15104;SDS011;7653;48.994;9.212;2023-05-23T05:42:36;53.83;;;35.37;;
15104;SDS011;7653;48.994;9.212;2023-05-23T05:45:01;51.23;;;39.43;;
15104;SDS011;7653;48.994;9.212;2023-05-23T05:47:27;45.87;;;30.13;;
15104;SDS011;7653;48.994;9.212;2023-05-23T05:49:52;50.37;;;37.60;;
15104;SDS011;7653;48.994;9.212;2023-05-23T05:52:18;44.10;;;29.83;;
15104;SDS011;7653;48.994;9.212;2023-05-23T05:54:44;51.87;;;37.33;;
15104;SDS011;7653;48.994;9.212;2023-05-23T05:57:09;45.77;;;35.83;;
15104;SDS011;7653;48.994;9.212;2023-05-23T05:59:35;45.43;;;33.50;;
15104;SDS011;7653;48.994;9.212;2023-05-23T06:02:01;46.57;;;36.37;;
15104;SDS011;7653;48.994;9.212;2023-05-23T06:04:26;48.37;;;36.90;;
15104;SDS011;7653;48.994;9.212;2023-05-23T06:06:52;44.27;;;32.50;;
15104;SDS011;7653;48.994;9.212;2023-05-23T06:09:18;45.17;;;34.43;;
15104;SDS011;7653;48.994;9.212;2023-05-23T06:11:43;41.03;;;31.10;;
15104;SDS011;7653;48.994;9.212;2023-05-23T06:14:09;42.20;;;30.50;;
15104;SDS011;7653;48.994;9.212;2023-05-23T06:16:35;44.33;;;33.57;;
15104;SDS011;7653;48.994;9.212;2023-05-23T06:19:00;46.23;;;36.07;;
15104;SDS011;7653;48.994;9.212;2023-05-23T06:21:26;42.83;;;34.93;;
15104;SDS011;7653;48.994;9.212;2023-05-23T06:23:52;44.17;;;35.00;;
15104;SDS011;7653;48.994;9.212;2023-05-23T06:26:17;41.00;;;35.70;;
15104;SDS011;7653;48.994;9.212;2023-05-23T06:28:43;40.27;;;27.67;;
15104;SDS011;7653;48.994;9.212;2023-05-23T06:31:09;41.47;;;32.73;;
15104;SDS011;7653;48.994;9.212;2023-05-23T06:33:34;48.67;;;38.40;;
15104;SDS011;7653;48.994;9.212;2023-05-23T06:36:00;46.73;;;33.87;;
15104;SDS011;7653;48.994;9.212;2023-05-23T06:38:27;23.90;;;16.40;;
15104;SDS011;7653;48.994;9.212;2023-05-23T06:40:55;48.33;;;34.03;;
15104;SDS011;7653;48.994;9.212;2023-05-23T06:43:20;44.83;;;32.23;;
15104;SDS011;7653;48.994;9.212;2023-05-23T06:45:46;39.37;;;31.37;;
15104;SDS011;7653;48.994;9.212;2023-05-23T06:48:12;40.63;;;18.77;;
15104;SDS011;7653;48.994;9.212;2023-05-23T06:50:38;41.27;;;32.00;;
15104;SDS011;7653;48.994;9.212;2023-05-23T06:53:04;38.20;;;30.63;;
15104;SDS011;7653;48.994;9.212;2023-05-23T06:55:30;39.53;;;30.43;;
15104;SDS011;7653;48.994;9.212;2023-05-23T06:57:57;41.00;;;30.50;;
15104;SDS011;7653;48.994;9.212;2023-05-23T07:00:24;39.37;;;31.27;;
15104;SDS011;7653;48.994;9.212;2023-05-23T07:02:50;36.73;;;29.40;;
15104;SDS011;7653;48.994;9.212;2023-05-23T07:05:15;23.83;;;15.70;;
15104;SDS011;7653;48.994;9.212;2023-05-23T07:07:41;31.87;;;26.47;;
15104;SDS011;7653;48.994;9.212;2023-05-23T07:10:08;31.03;;;23.50;;
15104;SDS011;7653;48.994;9.212;2023-05-23T07:12:34;28.00;;;22.37;;
15104;SDS011;7653;48.994;9.212;2023-05-23T07:15:00;24.80;;;17.97;;
15104;SDS011;7653;48.994;9.212;2023-05-23T07:17:26;20.50;;;14.83;;
15104;SDS011;7653;48.994;9.212;2023-05-23T07:19:54;31.67;;;20.03;;
15104;SDS011;7653;48.994;9.212;2023-05-23T07:22:19;24.40;;;19.10;;
15104;SDS011;7653;48.994;9.212;2023-05-23T07:24:45;24.07;;;17.93;;
15104;SDS011;7653;48.994;9.212;2023-05-23T07:27:11;30.97;;;23.73;;
15104;SDS011;7653;48.994;9.212;2023-05-23T07:29:37;29.93;;;26.03;;
15104;SDS011;7653;48.994;9.212;2023-05-23T07:32:02;23.20;;;17.57;;
15104;SDS011;7653;48.994;9.212;2023-05-23T07:34:28;21.80;;;17.57;;
15104;SDS011;7653;48.994;9.212;2023-05-23T07:36:54;31.23;;;20.53;;
15104;SDS011;7653;48.994;9.212;2023-05-23T07:39:20;15.70;;;10.30;;
15104;SDS011;7653;48.994;9.212;2023-05-23T07:41:48;18.10;;;14.73;;
15104;SDS011;7653;48.994;9.212;2023-05-23T07:44:14;10.10;;;7.20;;
15104;SDS011;7653;48.994;9.212;2023-05-23T07:46:40;28.07;;;23.03;;
15104;SDS011;7653;48.994;9.212;2023-05-23T07:49:06;25.07;;;22.17;;
15104;SDS011;7653;48.994;9.212;2023-05-23T07:51:31;24.03;;;21.53;;
15104;SDS011;7653;48.994;9.212;2023-05-23T07:53:58;27.90;;;19.97;;
15104;SDS011;7653;48.994;9.212;2023-05-23T07:56:24;17.90;;;14.50;;
15104;SDS011;7653;48.994;9.212;2023-05-23T07:58:50;18.80;;;13.83;;
15104;SDS011;7653;48.994;9.212;2023-05-23T08:01:16;23.10;;;20.70;;
15104;SDS011;7653;48.994;9.212;2023-05-23T08:03:42;22.13;;;19.87;;
15104;SDS011;7653;48.994;9.212;2023-05-23T08:06:08;26.60;;;20.20;;
15104;SDS011;7653;48.994;9.212;2023-05-23T08:08:34;14.93;;;13.27;;
15104;SDS011;7653;48.994;9.212;2023-05-23T08:11:00;24.07;;;18.57;;
15104;SDS011;7653;48.994;9.212;2023-05-23T08:13:26;23.87;;;21.27;;
15104;SDS011;7653;48.994;9.212;2023-05-23T08:15:52;18.33;;;13.80;;
15104;SDS011;7653;48.994;9.212;2023-05-23T08:18:18;20.17;;;15.77;;
15104;SDS011;7653;48.994;9.212;2023-05-23T08:20:43;13.77;;;9.37;;
15104;SDS011;7653;48.994;9.212;2023-05-23T08:23:09;19.33;;;16.40;;
15104;SDS011;7653;48.994;9.212;2023-05-23T08:25:36;22.30;;;17.73;;
15104;SDS011;7653;48.994;9.212;2023-05-23T08:28:02;13.80;;;10.77;;
15104;SDS011;7653;48.994;9.212;2023-05-23T08:30:28;16.60;;;11.17;;
15104;SDS011;7653;48.994;9.212;2023-05-23T08:32:53;13.97;;;11.87;;
15104;SDS011;7653;48.994;9.212;2023-05-23T08:35:20;9.77;;;6.60;;
15104;SDS011;7653;48.994;9.212;2023-05-23T08:37:47;17.13;;;14.07;;
15104;SDS011;7653;48.994;9.212;2023-05-23T08:40:17;20.27;;;18.17;;
15104;SDS011;7653;48.994;9.212;2023-05-23T08:42:45;16.60;;;13.53;;
15104;SDS011;7653;48.994;9.212;2023-05-23T08:45:14;19.77;;;16.97;;
15104;SDS011;7653;48.994;9.212;2023-05-23T08:47:42;18.53;;;16.63;;
15104;SDS011;7653;48.994;9.212;2023-05-23T08:50:11;19.37;;;15.80;;
15104;SDS011;7653;48.994;9.212;2023-05-23T08:52:59;16.90;;;14.60;;
15104;SDS011;7653;48.994;9.212;2023-05-23T08:55:25;15.53;;;13.80;;
15104;SDS011;7653;48.994;9.212;2023-05-23T08:57:52;13.33;;;11.70;;
15104;SDS011;7653;48.994;9.212;2023-05-23T09:00:19;14.50;;;11.53;;
15104;SDS011;7653;48.994;9.212;2023-05-23T09:02:46;14.23;;;12.73;;
15104;SDS011;7653;48.994;9.212;2023-05-23T09:05:12;15.53;;;13.77;;
15104;SDS011;7653;48.994;9.212;2023-05-23T09:07:38;17.67;;;11.60;;
15104;SDS011;7653;48.994;9.212;2023-05-23T09:10:05;15.37;;;13.30;;
15104;SDS011;7653;48.994;9.212;2023-05-23T09:12:33;17.70;;;13.80;;
15104;SDS011;7653;48.994;9.212;2023-05-23T09:15:01;15.30;;;12.50;;
15104;SDS011;7653;48.994;9.212;2023-05-23T09:17:27;17.63;;;14.30;;
15104;SDS011;7653;48.994;9.212;2023-05-23T09:19:53;14.97;;;12.77;;
15104;SDS011;7653;48.994;9.212;2023-05-23T09:22:25;15.03;;;11.60;;
15104;SDS011;7653;48.994;9.212;2023-05-23T09:24:51;14.13;;;12.63;;
15104;SDS011;7653;48.994;9.212;2023-05-23T09:27:19;12.67;;;10.20;;
15104;SDS011;7653;48.994;9.212;2023-05-23T09:29:44;8.60;;;6.73;;
15104;SDS011;7653;48.994;9.212;2023-05-23T09:32:15;14.70;;;13.10;;
15104;SDS011;7653;48.994;9.212;2023-05-23T09:37:16;23.33;;;18.30;;
15104;SDS011;7653;48.994;9.212;2023-05-23T09:39:46;12.30;;;11.00;;
15104;SDS011;7653;48.994;9.212;2023-05-23T09:42:17;15.50;;;12.80;;
15104;SDS011;7653;48.994;9.212;2023-05-23T09:44:48;15.60;;;13.37;;
15104;SDS011;7653;48.994;9.212;2023-05-23T09:47:15;14.10;;;11.90;;
15104;SDS011;7653;48.994;9.212;2023-05-23T09:49:45;13.37;;;11.97;;
15104;SDS011;7653;48.994;9.212;2023-05-23T09:52:11;13.03;;;11.60;;
15104;SDS011;7653;48.994;9.212;2023-05-23T09:54:37;11.93;;;10.67;;
15104;SDS011;7653;48.994;9.212;2023-05-23T09:57:08;11.70;;;10.37;;
15104;SDS011;7653;48.994;9.212;2023-05-23T09:59:37;8.03;;;6.67;;
15104;SDS011;7653;48.994;9.212;2023-05-23T10:02:06;12.40;;;11.10;;
15104;SDS011;7653;48.994;9.212;2023-05-23T10:04:41;8.13;;;6.67;;
15104;SDS011;7653;48.994;9.212;2023-05-23T10:09:38;12.23;;;11.13;;
15104;SDS011;7653;48.994;9.212;2023-05-23T10:14:54;12.77;;;9.33;;
15104;SDS011;7653;48.994;9.212;2023-05-23T10:20:16;9.23;;;8.33;;
15104;SDS011;7653;48.994;9.212;2023-05-23T10:22:45;10.73;;;9.60;;
15104;SDS011;7653;48.994;9.212;2023-05-23T10:25:13;11.40;;;9.10;;
15104;SDS011;7653;48.994;9.212;2023-05-23T10:27:39;10.23;;;9.23;;
15104;SDS011;7653;48.994;9.212;2023-05-23T10:30:07;11.90;;;9.23;;
15104;SDS011;7653;48.994;9.212;2023-05-23T10:32:33;10.43;;;9.27;;
15104;SDS011;7653;48.994;9.212;2023-05-23T10:45:38;10.77;;;9.67;;
15104;SDS011;7653;48.994;9.212;2023-05-23T10:48:15;11.23;;;9.07;;
15104;SDS011;7653;48.994;9.212;2023-05-23T10:50:48;11.30;;;10.10;;
15104;SDS011;7653;48.994;9.212;2023-05-23T10:53:34;10.90;;;9.83;;
15104;SDS011;7653;48.994;9.212;2023-05-23T10:56:10;10.23;;;9.17;;
15104;SDS011;7653;48.994;9.212;2023-05-23T10:58:43;10.23;;;9.23;;
15104;SDS011;7653;48.994;9.212;2023-05-23T11:01:12;12.97;;;11.60;;
15104;SDS011;7653;48.994;9.212;2023-05-23T11:06:32;33.23;;;24.37;;
15104;SDS011;7653;48.994;9.212;2023-05-23T11:14:17;8.97;;;7.70;;
15104;SDS011;7653;48.994;9.212;2023-05-23T11:16:44;12.77;;;11.53;;
15104;SDS011;7653;48.994;9.212;2023-05-23T11:21:54;10.53;;;9.47;;
15104;SDS011;7653;48.994;9.212;2023-05-23T11:24:21;10.70;;;9.50;;
15104;SDS011;7653;48.994;9.212;2023-05-23T11:26:57;10.67;;;8.83;;
15104;SDS011;7653;48.994;9.212;2023-05-23T11:29:28;9.17;;;8.00;;
15104;SDS011;7653;48.994;9.212;2023-05-23T11:31:54;9.77;;;8.80;;
15104;SDS011;7653;48.994;9.212;2023-05-23T11:34:21;8.37;;;7.57;;
15104;SDS011;7653;48.994;9.212;2023-05-23T11:36:51;9.37;;;8.43;;
15104;SDS011;7653;48.994;9.212;2023-05-23T11:39:20;8.57;;;7.67;;
15104;SDS011;7653;48.994;9.212;2023-05-23T11:41:57;10.07;;;7.60;;
15104;SDS011;7653;48.994;9.212;2023-05-23T11:44:29;8.53;;;7.67;;
15104;SDS011;7653;48.994;9.212;2023-05-23T11:47:02;9.13;;;7.87;;
15104;SDS011;7653;48.994;9.212;2023-05-23T11:49:29;4.80;;;3.77;;
15104;SDS011;7653;48.994;9.212;2023-05-23T11:51:56;9.77;;;7.57;;
15104;SDS011;7653;48.994;9.212;2023-05-23T11:54:25;8.57;;;7.07;;
15104;SDS011;7653;48.994;9.212;2023-05-23T11:56:51;6.87;;;6.17;;
15104;SDS011;7653;48.994;9.212;2023-05-23T11:59:18;7.47;;;6.07;;
15104;SDS011;7653;48.994;9.212;2023-05-23T12:01:45;7.57;;;6.43;;
15104;SDS011;7653;48.994;9.212;2023-05-23T12:04:10;4.97;;;4.47;;
15104;SDS011;7653;48.994;9.212;2023-05-23T12:06:37;6.60;;;5.93;;
15104;SDS011;7653;48.994;9.212;2023-05-23T12:09:04;6.70;;;6.00;;
15104;SDS011;7653;48.994;9.212;2023-05-23T12:11:31;6.87;;;6.27;;
15104;SDS011;7653;48.994;9.212;2023-05-23T12:13:57;6.00;;;5.40;;
15104;SDS011;7653;48.994;9.212;2023-05-23T12:16:26;7.50;;;6.80;;
15104;SDS011;7653;48.994;9.212;2023-05-23T12:18:53;6.20;;;5.67;;
15104;SDS011;7653;48.994;9.212;2023-05-23T12:21:24;6.03;;;5.53;;
15104;SDS011;7653;48.994;9.212;2023-05-23T12:23:50;7.43;;;6.10;;
15104;SDS011;7653;48.994;9.212;2023-05-23T12:26:16;5.00;;;4.50;;
15104;SDS011;7653;48.994;9.212;2023-05-23T12:28:42;6.63;;;5.37;;
15104;SDS011;7653;48.994;9.212;2023-05-23T12:31:14;6.03;;;5.43;;
15104;SDS011;7653;48.994;9.212;2023-05-23T12:33:45;5.77;;;5.10;;
15104;SDS011;7653;48.994;9.212;2023-05-23T12:36:15;4.30;;;3.90;;
15104;SDS011;7653;48.994;9.212;2023-05-23T12:38:47;6.13;;;4.70;;
15104;SDS011;7653;48.994;9.212;2023-05-23T12:41:16;3.90;;;3.50;;
15104;SDS011;7653;48.994;9.212;2023-05-23T12:43:53;4.90;;;4.50;;
15104;SDS011;7653;48.994;9.212;2023-05-23T12:46:20;4.60;;;4.20;;
15104;SDS011;7653;48.994;9.212;2023-05-23T12:48:48;4.90;;;4.10;;
15104;SDS011;7653;48.994;9.212;2023-05-23T12:51:13;3.70;;;3.40;;
15104;SDS011;7653;48.994;9.212;2023-05-23T12:53:40;5.23;;;4.47;;
15104;SDS011;7653;48.994;9.212;2023-05-23T12:56:05;3.10;;;2.80;;
15104;SDS011;7653;48.994;9.212;2023-05-23T12:58:31;5.27;;;4.47;;
15104;SDS011;7653;48.994;9.212;2023-05-23T13:00:58;4.70;;;4.20;;
15104;SDS011;7653;48.994;9.212;2023-05-23T13:03:23;4.27;;;3.87;;
15104;SDS011;7653;48.994;9.212;2023-05-23T13:05:49;4.63;;;4.23;;
15104;SDS011;7653;48.994;9.212;2023-05-23T13:08:16;3.27;;;2.97;;
15104;SDS011;7653;48.994;9.212;2023-05-23T13:10:45;6.00;;;3.93;;
15104;SDS011;7653;48.994;9.212;2023-05-23T13:13:10;4.80;;;4.27;;
15104;SDS011;7653;48.994;9.212;2023-05-23T13:15:36;5.33;;;4.23;;
15104;SDS011;7653;48.994;9.212;2023-05-23T13:18:02;1.90;;;1.70;;
15104;SDS011;7653;48.994;9.212;2023-05-23T13:20:28;4.97;;;4.23;;
15104;SDS011;7653;48.994;9.212;2023-05-23T13:22:57;4.43;;;4.03;;
15104;SDS011;7653;48.994;9.212;2023-05-23T13:25:24;3.60;;;2.90;;
15104;SDS011;7653;48.994;9.212;2023-05-23T13:27:51;4.07;;;3.67;;
15104;SDS011;7653;48.994;9.212;2023-05-23T13:30:17;6.03;;;3.93;;
15104;SDS011;7653;48.994;9.212;2023-05-23T13:32:47;5.60;;;4.00;;
15104;SDS011;7653;48.994;9.212;2023-05-23T13:35:13;3.23;;;2.97;;
15104;SDS011;7653;48.994;9.212;2023-05-23T13:37:39;3.70;;;3.30;;
15104;SDS011;7653;48.994;9.212;2023-05-23T13:40:04;3.80;;;3.50;;
15104;SDS011;7653;48.994;9.212;2023-05-23T13:42:31;3.97;;;3.67;;
15104;SDS011;7653;48.994;9.212;2023-05-23T13:44:59;5.00;;;4.13;;
15104;SDS011;7653;48.994;9.212;2023-05-23T13:47:25;4.20;;;3.80;;
15104;SDS011;7653;48.994;9.212;2023-05-23T13:49:50;6.47;;;3.50;;
15104;SDS011;7653;48.994;9.212;2023-05-23T13:52:16;3.90;;;3.50;;
15104;SDS011;7653;48.994;9.212;2023-05-23T13:54:43;3.53;;;3.23;;
15104;SDS011;7653;48.994;9.212;2023-05-23T13:57:10;2.50;;;2.30;;
15104;SDS011;7653;48.994;9.212;2023-05-23T13:59:35;3.07;;;2.87;;
15104;SDS011;7653;48.994;9.212;2023-05-23T14:02:01;3.87;;;3.47;;
15104;SDS011;7653;48.994;9.212;2023-05-23T14:04:27;3.40;;;3.10;;
15104;SDS011;7653;48.994;9.212;2023-05-23T14:06:52;3.30;;;3.00;;
15104;SDS011;7653;48.994;9.212;2023-05-23T14:09:18;4.00;;;3.60;;
15104;SDS011;7653;48.994;9.212;2023-05-23T14:11:43;3.60;;;3.23;;
15104;SDS011;7653;48.994;9.212;2023-05-23T14:14:09;4.50;;;3.97;;
15104;SDS011;7653;48.994;9.212;2023-05-23T14:16:35;3.63;;;3.33;;
15104;SDS011;7653;48.994;9.212;2023-05-23T14:19:00;3.57;;;2.63;;
15104;SDS011;7653;48.994;9.212;2023-05-23T14:21:26;3.90;;;3.30;;
15104;SDS011;7653;48.994;9.212;2023-05-23T14:23:52;3.97;;;3.43;;
15104;SDS011;7653;48.994;9.212;2023-05-23T14:26:18;4.33;;;3.93;;
15104;SDS011;7653;48.994;9.212;2023-05-23T14:28:43;3.93;;;3.63;;
15104;SDS011;7653;48.994;9.212;2023-05-23T14:31:09;3.67;;;3.37;;
15104;SDS011;7653;48.994;9.212;2023-05-23T14:33:35;5.50;;;3.73;;
15104;SDS011;7653;48.994;9.212;2023-05-23T14:36:01;6.07;;;3.93;;
15104;SDS011;7653;48.994;9.212;2023-05-23T14:38:27;3.70;;;3.40;;
15104;SDS011;7653;48.994;9.212;2023-05-23T14:40:52;3.63;;;3.03;;
15104;SDS011;7653;48.994;9.212;2023-05-23T14:43:18;3.47;;;3.17;;
15104;SDS011;7653;48.994;9.212;2023-05-23T14:45:45;4.83;;;2.80;;
15104;SDS011;7653;48.994;9.212;2023-05-23T14:48:10;3.13;;;2.83;;
15104;SDS011;7653;48.994;9.212;2023-05-23T14:50:36;3.73;;;3.17;;
15104;SDS011;7653;48.994;9.212;2023-05-23T14:53:02;3.27;;;2.97;;
15104;SDS011;7653;48.994;9.212;2023-05-23T14:55:27;4.93;;;2.80;;
15104;SDS011;7653;48.994;9.212;2023-05-23T14:57:53;3.77;;;3.40;;
15104;SDS011;7653;48.994;9.212;2023-05-23T15:00:19;3.37;;;2.87;;
15104;SDS011;7653;48.994;9.212;2023-05-23T15:02:44;8.23;;;4.10;;
15104;SDS011;7653;48.994;9.212;2023-05-23T15:05:11;4.33;;;3.93;;
15104;SDS011;7653;48.994;9.212;2023-05-23T15:07:37;5.30;;;4.10;;
15104;SDS011;7653;48.994;9.212;2023-05-23T15:10:05;4.40;;;4.00;;
15104;SDS011;7653;48.994;9.212;2023-05-23T15:12:32;5.23;;;3.70;;
15104;SDS011;7653;48.994;9.212;2023-05-23T15:14:57;4.27;;;3.87;;
15104;SDS011;7653;48.994;9.212;2023-05-23T15:17:27;4.13;;;3.60;;
15104;SDS011;7653;48.994;9.212;2023-05-23T15:19:53;5.20;;;3.80;;